Time;durP1;ratioP1;P1;durP2;ratioP2;P2;SDS_P1;SDS_P2;PMS_P1;PMS_P2;Temp;Humidity;BMP_temperature;BMP_pressure;BME280_temperature;BME280_humidity;BME280_pressure;Samples;Min_cycle;Max_cycle;Signal;HPM_P1;HPM_P2
2023/01/24 00:02:03;;;;;;;23.00;10.90;;;5.40;99.90;;;;;;5064630;28;20033;-70
2023/01/24 00:04:29;;;;;;;27.83;13.32;;;5.40;99.90;;;;;;5062627;28;20025;-69
2023/01/24 00:06:54;;;;;;;25.15;11.63;;;5.30;99.90;;;;;;5065233;28;20102;-70
2023/01/24 00:09:20;;;;;;;26.88;12.88;;;5.30;99.90;;;;;;5062674;28;20025;-69
2023/01/24 00:11:45;;;;;;;26.67;12.40;;;5.30;99.90;;;;;;5061080;28;20041;-70
2023/01/24 00:14:11;;;;;;;25.33;12.02;;;5.40;99.90;;;;;;5059720;28;20029;-71
2023/01/24 00:16:37;;;;;;;26.13;13.30;;;5.30;99.90;;;;;;5063404;28;20027;-73
2023/01/24 00:19:02;;;;;;;27.05;12.88;;;5.30;99.90;;;;;;5071849;28;20045;-73
2023/01/24 00:21:28;;;;;;;26.83;12.10;;;5.30;99.90;;;;;;5073829;28;20024;-69
2023/01/24 00:23:54;;;;;;;26.15;12.27;;;5.40;99.90;;;;;;5070723;28;20025;-68
2023/01/24 00:26:22;;;;;;;26.77;12.95;;;5.30;99.90;;;;;;5058000;28;20036;-69
2023/01/24 00:28:49;;;;;;;24.42;11.73;;;5.30;99.90;;;;;;5072492;28;20431;-71
2023/01/24 00:31:15;;;;;;;26.58;12.25;;;5.40;99.90;;;;;;5073728;28;20040;-71
2023/01/24 00:33:40;;;;;;;23.70;11.82;;;5.30;99.90;;;;;;5073930;28;20585;-69
2023/01/24 00:36:06;;;;;;;25.80;13.30;;;5.40;99.90;;;;;;5063996;28;20155;-70
2023/01/24 00:38:32;;;;;;;25.17;12.15;;;5.40;99.90;;;;;;5035879;28;20756;-71
2023/01/24 00:40:58;;;;;;;25.25;12.23;;;5.40;99.90;;;;;;5053609;28;20112;-70
2023/01/24 00:43:26;;;;;;;26.25;12.57;;;5.40;99.90;;;;;;5058617;28;20028;-70
2023/01/24 00:45:51;;;;;;;27.88;13.43;;;5.40;99.90;;;;;;5073873;28;20071;-70
2023/01/24 00:48:17;;;;;;;25.13;11.77;;;5.40;99.90;;;;;;5073899;28;20032;-72
2023/01/24 00:50:43;;;;;;;25.38;12.23;;;5.40;99.90;;;;;;5073602;28;20029;-71
2023/01/24 00:53:09;;;;;;;24.30;11.30;;;5.40;99.90;;;;;;5073646;28;20035;-70
2023/01/24 00:55:39;;;;;;;25.13;11.82;;;5.40;99.90;;;;;;5072806;28;20062;-70
2023/01/24 00:58:05;;;;;;;22.85;11.65;;;5.40;99.90;;;;;;5072607;28;20094;-69
2023/01/24 01:00:31;;;;;;;23.63;11.07;;;5.30;99.90;;;;;;5071588;28;20036;-68
2023/01/24 01:02:56;;;;;;;25.75;11.57;;;5.30;99.90;;;;;;5054478;28;20487;-71
2023/01/24 01:05:22;;;;;;;25.25;12.73;;;5.30;99.90;;;;;;5073236;28;20541;-72
2023/01/24 01:07:47;;;;;;;26.50;13.07;;;5.30;99.90;;;;;;5065397;28;20029;-72
2023/01/24 01:10:14;;;;;;;27.52;12.95;;;5.20;99.90;;;;;;5063790;28;20111;-70
2023/01/24 01:12:40;;;;;;;24.65;12.57;;;5.30;99.90;;;;;;5054946;28;20028;-70
2023/01/24 01:15:06;;;;;;;26.92;12.82;;;5.30;99.90;;;;;;5043718;28;20033;-69
2023/01/24 01:17:32;;;;;;;25.33;11.75;;;5.30;99.90;;;;;;5066987;28;20093;-69
2023/01/24 01:19:58;;;;;;;26.88;12.98;;;5.30;99.90;;;;;;5071873;28;20025;-69
2023/01/24 01:22:24;;;;;;;27.55;13.30;;;5.30;99.90;;;;;;5059381;28;20032;-69
2023/01/24 01:24:49;;;;;;;25.13;12.77;;;5.30;99.90;;;;;;5072291;28;20024;-69
2023/01/24 01:27:15;;;;;;;26.50;12.45;;;5.20;99.90;;;;;;5072592;28;20103;-69
2023/01/24 01:29:41;;;;;;;26.25;12.27;;;5.20;99.90;;;;;;5072633;28;20028;-69
2023/01/24 01:32:07;;;;;;;27.33;12.73;;;5.20;99.90;;;;;;5072359;28;20032;-69
2023/01/24 01:34:33;;;;;;;25.58;12.30;;;5.30;99.90;;;;;;5072779;28;20444;-70
2023/01/24 01:36:59;;;;;;;22.42;11.10;;;5.20;99.90;;;;;;5072624;28;20545;-70
2023/01/24 01:39:26;;;;;;;25.58;11.40;;;5.30;99.90;;;;;;5069487;28;20035;-69
2023/01/24 01:41:51;;;;;;;24.42;12.38;;;5.20;99.90;;;;;;5054656;28;20037;-69
2023/01/24 01:44:38;;;;;;;24.27;11.40;;;5.20;99.90;;;;;;5059239;28;20074;-69
2023/01/24 01:47:17;;;;;;;24.77;11.63;;;5.20;99.90;;;;;;5072299;28;20047;-69
2023/01/24 01:49:52;;;;;;;24.88;12.35;;;5.20;99.90;;;;;;5067707;28;20032;-72
2023/01/24 02:02:23;;;;;;;24.15;12.32;;;5.30;99.90;;;;;;5047336;28;20512;-69
2023/01/24 02:04:58;;;;;;;28.38;12.77;;;5.30;99.90;;;;;;5069823;28;20104;-70
2023/01/24 02:07:41;;;;;;;24.05;11.27;;;5.30;99.90;;;;;;5072069;28;20473;-70
2023/01/24 02:10:07;;;;;;;25.85;12.18;;;5.30;99.90;;;;;;5071582;28;20369;-71
2023/01/24 02:12:39;;;;;;;24.20;11.63;;;5.20;99.90;;;;;;5072118;28;20060;-71
2023/01/24 02:18:00;;;;;;;29.38;12.75;;;5.30;99.90;;;;;;5071809;28;20170;-70
2023/01/24 02:20:42;;;;;;;24.80;11.80;;;5.30;99.90;;;;;;5071097;28;20167;-72
2023/01/24 02:23:07;;;;;;;;;;;5.30;99.90;;;;;;5071323;28;20050;-72
2023/01/24 02:25:38;;;;;;;24.00;11.23;;;5.30;99.90;;;;;;5071944;28;20360;-68
2023/01/24 02:28:10;;;;;;;23.83;10.70;;;5.30;99.90;;;;;;5071810;28;20495;-72
2023/01/24 02:31:19;;;;;;;24.30;11.77;;;5.30;99.90;;;;;;5051185;28;20127;-69
2023/01/24 02:34:05;;;;;;;26.13;11.95;;;5.20;99.90;;;;;;5059145;28;20108;-72
2023/01/24 02:36:44;;;;;;;24.90;11.45;;;5.30;99.90;;;;;;5057483;28;20065;-69
2023/01/24 02:39:11;;;;;;;24.95;12.05;;;5.30;99.90;;;;;;5041873;28;20028;-68
2023/01/24 02:41:59;;;;;;;26.63;12.73;;;5.30;99.90;;;;;;5072083;28;20036;-69
2023/01/24 02:44:34;;;;;;;26.98;12.05;;;5.30;99.90;;;;;;5070818;28;20362;-70
2023/01/24 02:47:01;;;;;;;24.35;12.20;;;5.30;99.90;;;;;;5072143;28;20094;-68
2023/01/24 02:49:27;;;;;;;24.40;11.32;;;5.30;99.90;;;;;;5053217;28;20033;-70
2023/01/24 02:54:38;;;;;;;25.35;12.07;;;5.30;99.90;;;;;;5065088;28;20080;-69
2023/01/24 02:59:47;;;;;;;27.60;11.70;;;5.30;99.90;;;;;;5065959;28;20039;-71
2023/01/24 03:02:13;;;;;;;28.58;12.85;;;5.30;99.90;;;;;;5071925;28;20024;-70
2023/01/24 03:04:38;;;;;;;25.13;12.20;;;5.40;99.90;;;;;;5060468;28;20035;-72
2023/01/24 03:07:04;;;;;;;24.48;12.10;;;5.40;99.90;;;;;;5051429;28;20064;-72
2023/01/24 03:09:38;;;;;;;25.77;11.90;;;5.40;99.90;;;;;;5051981;28;20110;-70
2023/01/24 03:36:43;;;;;;;25.92;11.85;;;5.20;99.90;;;;;;5075083;28;20031;-70
2023/01/24 03:41:55;;;;;;;26.20;12.10;;;5.20;99.90;;;;;;5074799;28;20036;-71
2023/01/24 03:44:23;;;;;;;23.15;11.05;;;5.30;99.90;;;;;;5074328;28;20028;-69
2023/01/24 03:46:49;;;;;;;26.20;12.10;;;5.30;99.90;;;;;;5056634;28;20025;-69
2023/01/24 03:49:16;;;;;;;22.85;11.30;;;5.20;99.90;;;;;;5063011;28;20021;-72
2023/01/24 03:54:27;;;;;;;26.02;12.43;;;5.20;99.90;;;;;;5074723;28;20035;-71
2023/01/24 03:56:52;;;;;;;25.63;12.18;;;5.10;99.90;;;;;;5056464;28;20029;-70
2023/01/24 03:59:18;;;;;;;25.02;13.30;;;5.20;99.90;;;;;;5044840;28;20097;-69
2023/01/24 04:01:43;;;;;;;28.02;13.18;;;5.10;99.90;;;;;;5054491;28;20377;-70
2023/01/24 04:04:11;;;;;;;24.08;11.25;;;5.10;99.90;;;;;;5057675;28;20475;-69
2023/01/24 04:06:37;;;;;;;26.92;12.63;;;5.10;99.90;;;;;;5074516;28;20021;-69
2023/01/24 04:09:03;;;;;;;27.02;12.85;;;5.20;99.90;;;;;;5074838;28;20032;-70
2023/01/24 04:11:28;;;;;;;25.42;12.23;;;5.20;99.90;;;;;;5060839;28;20413;-69
2023/01/24 04:13:54;;;;;;;25.50;12.02;;;5.20;99.90;;;;;;5074331;28;20051;-70
2023/01/24 04:16:20;;;;;;;28.15;13.85;;;5.20;99.90;;;;;;5074016;28;20487;-69
2023/01/24 04:18:45;;;;;;;25.10;12.38;;;5.20;99.90;;;;;;5074225;28;20049;-69
2023/01/24 04:21:11;;;;;;;25.88;12.82;;;5.20;99.90;;;;;;5073931;28;20032;-70
2023/01/24 04:23:37;;;;;;;24.60;12.05;;;5.20;99.90;;;;;;5074418;28;20094;-69
2023/01/24 04:26:03;;;;;;;24.27;11.88;;;5.20;99.90;;;;;;5073828;28;20036;-70
2023/01/24 04:28:30;;;;;;;22.95;11.25;;;5.20;99.90;;;;;;5073993;28;20040;-69
2023/01/24 04:30:58;;;;;;;24.63;11.20;;;5.10;99.90;;;;;;5073749;28;20044;-70
2023/01/24 04:33:24;;;;;;;20.33;9.85;;;5.20;99.90;;;;;;5072955;28;20464;-70
2023/01/24 04:35:49;;;;;;;24.08;10.80;;;5.20;99.90;;;;;;5074051;28;20021;-69
2023/01/24 04:38:15;;;;;;;22.38;10.90;;;5.20;99.90;;;;;;5068272;28;20086;-70
2023/01/24 04:40:41;;;;;;;23.40;10.10;;;5.10;99.90;;;;;;5073547;28;20036;-69
2023/01/24 04:43:06;;;;;;;20.75;9.38;;;5.10;99.90;;;;;;5055402;28;20021;-70
2023/01/24 04:45:32;;;;;;;22.45;10.88;;;5.10;99.90;;;;;;5059082;28;20453;-70
2023/01/24 04:47:57;;;;;;;21.30;9.43;;;5.10;99.90;;;;;;5054238;28;20083;-70
2023/01/24 04:50:23;;;;;;;23.02;10.23;;;5.00;99.90;;;;;;5073428;28;20021;-69
2023/01/24 04:52:49;;;;;;;25.70;10.70;;;5.00;99.90;;;;;;5073591;28;20036;-69
2023/01/24 04:55:14;;;;;;;22.42;10.23;;;5.00;99.90;;;;;;5072970;28;20472;-69
2023/01/24 04:57:40;;;;;;;23.27;10.52;;;5.00;99.90;;;;;;5073614;28;20449;-70
2023/01/24 05:00:08;;;;;;;21.30;10.48;;;5.10;99.90;;;;;;5073244;28;20377;-69
2023/01/24 05:02:34;;;;;;;26.52;10.57;;;5.10;99.90;;;;;;5073260;28;20021;-70
2023/01/24 05:04:59;;;;;;;23.75;10.80;;;5.00;99.90;;;;;;5073775;28;20031;-70
2023/01/24 05:07:25;;;;;;;24.15;10.73;;;5.00;99.90;;;;;;5071442;28;20025;-70
2023/01/24 05:09:50;;;;;;;23.35;10.90;;;5.00;99.90;;;;;;5053404;28;20033;-69
2023/01/24 05:12:16;;;;;;;24.63;11.52;;;5.00;99.90;;;;;;5064851;28;20522;-69
2023/01/24 05:14:41;;;;;;;21.83;10.20;;;5.10;99.90;;;;;;5073361;28;20564;-70
2023/01/24 05:17:07;;;;;;;25.83;11.35;;;5.00;99.90;;;;;;5072969;28;20078;-69
2023/01/24 05:19:32;;;;;;;22.75;11.13;;;5.00;99.90;;;;;;5073405;28;20021;-69
2023/01/24 05:21:58;;;;;;;27.15;12.13;;;5.00;99.90;;;;;;5067620;28;20021;-69
2023/01/24 05:24:24;;;;;;;28.35;12.90;;;5.00;99.90;;;;;;5053351;28;20116;-69
2023/01/24 05:26:49;;;;;;;23.48;11.80;;;5.00;99.90;;;;;;5059778;28;20362;-69
2023/01/24 05:29:15;;;;;;;25.98;12.13;;;5.00;99.90;;;;;;5072786;28;20047;-70
2023/01/24 05:31:40;;;;;;;25.13;12.70;;;5.00;99.90;;;;;;5073104;28;20541;-69
2023/01/24 05:34:06;;;;;;;25.13;12.02;;;5.00;99.90;;;;;;5073075;28;20441;-69
2023/01/24 05:36:31;;;;;;;25.40;12.40;;;5.00;99.90;;;;;;5072552;28;20428;-69
2023/01/24 05:38:57;;;;;;;25.02;12.65;;;4.90;99.90;;;;;;5072387;28;20488;-70
2023/01/24 05:41:23;;;;;;;24.15;11.98;;;4.90;99.90;;;;;;5062896;28;20460;-70
2023/01/24 05:43:49;;;;;;;25.80;12.32;;;4.90;99.90;;;;;;5090075;28;20464;-69
2023/01/24 05:46:19;;;;;;;23.40;11.27;;;4.90;99.90;;;;;;5072785;28;20041;-69
2023/01/24 05:48:45;;;;;;;24.58;13.02;;;4.90;99.90;;;;;;5072633;28;20028;-69
2023/01/24 05:51:14;;;;;;;26.10;12.30;;;4.90;99.90;;;;;;5072829;28;20040;-70
2023/01/24 05:53:41;;;;;;;26.10;12.85;;;4.90;99.90;;;;;;5072302;28;20033;-69
2023/01/24 05:56:12;;;;;;;24.70;12.15;;;4.80;99.90;;;;;;5072943;28;20103;-70
2023/01/24 05:58:37;;;;;;;25.83;13.50;;;4.80;99.90;;;;;;5072875;28;20032;-69
2023/01/24 06:01:11;;;;;;;23.95;11.90;;;4.80;99.90;;;;;;5072823;28;20016;-69
2023/01/24 06:03:39;;;;;;;28.65;13.30;;;4.80;99.90;;;;;;5072451;28;20097;-70
2023/01/24 06:06:05;;;;;;;24.83;13.13;;;4.80;99.90;;;;;;5072287;28;20357;-70
2023/01/24 06:08:31;;;;;;;25.13;11.75;;;4.90;99.90;;;;;;5072713;28;20464;-70
2023/01/24 06:11:04;;;;;;;26.30;13.15;;;4.90;99.90;;;;;;5072791;28;20033;-70
2023/01/24 06:13:30;;;;;;;26.65;13.15;;;4.90;99.90;;;;;;5072124;28;20029;-69
2023/01/24 06:16:10;;;;;;;25.90;13.10;;;4.90;99.90;;;;;;5072720;28;20035;-69
2023/01/24 06:18:36;;;;;;;26.88;14.27;;;4.90;99.90;;;;;;5072404;28;20074;-70
2023/01/24 06:21:13;;;;;;;27.00;13.38;;;5.00;99.90;;;;;;5072241;28;20444;-69
2023/01/24 06:23:39;;;;;;;25.77;12.73;;;4.90;99.90;;;;;;5072553;28;20029;-69
2023/01/24 06:26:11;;;;;;;26.17;12.38;;;4.90;99.90;;;;;;5072140;28;20139;-69
2023/01/24 06:28:38;;;;;;;25.00;12.73;;;4.90;99.90;;;;;;5072266;28;20074;-69
2023/01/24 06:31:33;;;;;;;25.88;11.93;;;4.80;99.90;;;;;;5072324;28;20056;-69
2023/01/24 06:34:32;;;;;;;23.73;12.68;;;4.80;99.90;;;;;;5072403;28;20508;-69
2023/01/24 06:37:21;;;;;;;28.33;13.65;;;4.80;99.90;;;;;;5072446;28;20112;-69
2023/01/24 06:39:52;;;;;;;28.52;14.65;;;4.80;99.90;;;;;;5072492;28;20021;-69
2023/01/24 06:42:19;;;;;;;28.48;14.50;;;4.80;99.90;;;;;;5072443;28;20024;-70
2023/01/24 06:44:45;;;;;;;27.50;14.43;;;4.70;99.90;;;;;;5072292;28;20021;-69
2023/01/24 06:47:11;;;;;;;30.02;14.25;;;4.70;99.90;;;;;;5072269;28;20488;-69
2023/01/24 06:49:38;;;;;;;29.95;14.27;;;4.70;99.90;;;;;;5058135;28;20135;-69
2023/01/24 06:52:04;;;;;;;27.67;12.88;;;4.70;99.90;;;;;;5051820;28;20037;-69
2023/01/24 06:54:30;;;;;;;32.17;16.23;;;4.70;99.90;;;;;;5057893;28;20028;-69
2023/01/24 06:56:55;;;;;;;25.98;14.00;;;4.70;99.90;;;;;;5074844;28;20485;-69
2023/01/24 06:59:22;;;;;;;28.13;14.35;;;4.70;99.90;;;;;;5075877;28;20028;-69
2023/01/24 07:01:49;;;;;;;29.95;15.80;;;4.70;99.90;;;;;;5076093;28;20024;-69
2023/01/24 07:04:14;;;;;;;31.10;15.55;;;4.70;99.90;;;;;;5075727;28;20024;-70
2023/01/24 07:06:40;;;;;;;30.02;13.70;;;4.70;99.90;;;;;;5075693;28;20081;-69
2023/01/24 07:09:06;;;;;;;27.20;14.32;;;4.70;99.90;;;;;;5075537;28;20598;-69
2023/01/24 07:11:31;;;;;;;29.70;14.85;;;4.70;99.90;;;;;;5071023;28;20044;-71
2023/01/24 07:13:57;;;;;;;27.15;14.18;;;4.70;99.90;;;;;;5075752;28;20377;-70
2023/01/24 07:16:23;;;;;;;28.58;14.68;;;4.80;99.90;;;;;;5075876;28;20158;-69
2023/01/24 07:18:49;;;;;;;31.80;14.85;;;4.80;99.90;;;;;;5075716;28;20458;-70
2023/01/24 07:21:15;;;;;;;28.67;14.18;;;4.80;99.90;;;;;;5057261;28;20032;-69
2023/01/24 07:23:47;;;;;;;27.95;13.05;;;4.80;99.90;;;;;;5074008;28;20063;-69
2023/01/24 07:26:14;;;;;;;27.80;14.32;;;4.80;99.90;;;;;;5075840;28;20051;-70
2023/01/24 07:28:40;;;;;;;30.08;14.50;;;4.80;99.90;;;;;;5075246;28;20028;-69
2023/01/24 07:31:07;;;;;;;28.83;14.77;;;4.70;99.90;;;;;;5075531;28;20032;-69
2023/01/24 07:33:32;;;;;;;29.17;14.65;;;4.70;99.90;;;;;;5075176;28;20027;-70
2023/01/24 07:35:58;;;;;;;30.88;14.13;;;4.70;99.90;;;;;;5075310;28;20369;-69
2023/01/24 07:38:24;;;;;;;30.13;14.43;;;4.80;99.90;;;;;;5075485;28;20073;-69
2023/01/24 07:40:49;;;;;;;30.25;14.25;;;4.70;99.90;;;;;;5075301;28;20345;-69
2023/01/24 07:43:15;;;;;;;27.67;13.35;;;4.70;99.90;;;;;;5075218;28;20373;-69
2023/01/24 07:45:44;;;;;;;27.88;12.60;;;4.70;99.90;;;;;;5074993;28;20021;-69
2023/01/24 07:48:09;;;;;;;25.35;12.90;;;4.70;99.90;;;;;;5073339;28;20028;-69
2023/01/24 07:50:35;;;;;;;29.42;14.02;;;4.70;99.90;;;;;;5074880;28;20035;-69
2023/01/24 07:53:01;;;;;;;30.98;13.75;;;4.70;99.90;;;;;;5075092;28;20032;-69
2023/01/24 07:55:27;;;;;;;29.92;13.60;;;4.70;99.90;;;;;;5074864;28;20091;-69
2023/01/24 07:57:59;;;;;;;27.02;13.93;;;4.70;99.90;;;;;;5074838;28;20124;-69
2023/01/24 08:00:24;;;;;;;28.30;13.25;;;4.70;99.90;;;;;;5072771;28;20032;-69
2023/01/24 08:02:50;;;;;;;29.77;13.68;;;4.80;99.90;;;;;;5074153;28;20043;-69
2023/01/24 08:05:15;;;;;;;30.55;14.07;;;4.70;99.90;;;;;;5074499;28;20028;-69
2023/01/24 08:07:41;;;;;;;29.38;12.98;;;4.80;99.90;;;;;;5074150;28;20082;-70
2023/01/24 08:10:07;;;;;;;28.67;12.20;;;4.70;99.90;;;;;;5074781;28;20086;-69
2023/01/24 08:12:33;;;;;;;27.25;13.07;;;4.70;99.90;;;;;;5073744;28;20032;-70
2023/01/24 08:14:58;;;;;;;28.95;13.45;;;4.70;99.90;;;;;;5074455;28;20051;-69
2023/01/24 08:17:24;;;;;;;27.63;13.20;;;4.70;99.90;;;;;;5074271;28;20124;-69
2023/01/24 08:19:49;;;;;;;29.58;13.85;;;4.70;99.90;;;;;;5074193;28;20453;-69
2023/01/24 08:22:15;;;;;;;27.60;12.27;;;4.70;99.90;;;;;;5074227;28;20102;-69
2023/01/24 08:24:40;;;;;;;27.83;12.68;;;4.70;99.90;;;;;;5074613;28;20028;-69
2023/01/24 08:27:06;;;;;;;28.17;13.25;;;4.80;99.90;;;;;;5055763;28;20037;-69
2023/01/24 08:29:32;;;;;;;26.73;11.50;;;4.80;99.90;;;;;;5074435;28;20086;-69
2023/01/24 08:31:58;;;;;;;24.80;11.48;;;4.80;99.90;;;;;;5074137;28;20029;-69
2023/01/24 08:34:24;;;;;;;26.70;11.93;;;4.80;99.90;;;;;;5074158;28;20056;-69
2023/01/24 08:36:50;;;;;;;23.73;10.10;;;4.80;99.90;;;;;;5073044;28;20110;-69
2023/01/24 08:39:15;;;;;;;25.75;11.38;;;4.80;99.90;;;;;;5073868;28;20029;-69
2023/01/24 08:41:43;;;;;;;26.65;12.00;;;4.80;99.90;;;;;;5073890;28;20040;-69
2023/01/24 08:44:09;;;;;;;26.77;12.55;;;4.70;99.90;;;;;;5056023;28;20029;-69
2023/01/24 08:46:35;;;;;;;26.58;11.73;;;4.70;99.90;;;;;;5073535;28;20020;-70
2023/01/24 08:49:03;;;;;;;25.92;11.60;;;4.70;99.90;;;;;;5063375;28;20151;-69
2023/01/24 08:51:28;;;;;;;28.27;12.80;;;4.70;99.90;;;;;;5053802;28;20059;-69
2023/01/24 08:53:54;;;;;;;28.85;12.05;;;4.70;99.90;;;;;;5063340;28;20461;-69
2023/01/24 08:56:19;;;;;;;25.33;11.73;;;4.70;99.90;;;;;;5073784;28;20047;-69
2023/01/24 08:58:45;;;;;;;28.65;12.50;;;4.80;99.90;;;;;;5073779;28;20070;-70
2023/01/24 09:01:10;;;;;;;26.35;10.98;;;4.80;99.90;;;;;;5073675;28;20032;-69
2023/01/24 09:03:37;;;;;;;27.05;11.90;;;4.80;99.90;;;;;;5073557;28;20028;-69
2023/01/24 09:06:04;;;;;;;28.13;13.20;;;4.80;99.90;;;;;;5073221;28;20097;-70
2023/01/24 09:08:30;;;;;;;31.63;13.85;;;4.80;99.90;;;;;;5073697;28;20047;-69
2023/01/24 09:10:59;;;;;;;27.85;12.98;;;4.80;99.90;;;;;;5073383;28;20473;-69
2023/01/24 09:13:25;;;;;;;28.10;12.73;;;4.80;99.90;;;;;;5072916;28;20108;-70
2023/01/24 09:15:50;;;;;;;30.55;13.90;;;4.80;99.90;;;;;;5073330;28;20111;-69
2023/01/24 09:18:16;;;;;;;27.35;12.43;;;4.80;99.90;;;;;;5072653;28;20048;-69
2023/01/24 09:20:42;;;;;;;27.20;13.40;;;4.80;99.90;;;;;;5055395;28;20028;-70
2023/01/24 09:23:14;;;;;;;28.83;13.60;;;4.80;99.90;;;;;;5073199;28;20029;-69
2023/01/24 09:25:40;;;;;;;25.73;11.85;;;4.80;99.90;;;;;;5073380;28;20024;-69
2023/01/24 09:28:06;;;;;;;28.42;12.68;;;4.80;99.90;;;;;;5072813;28;20031;-69
2023/01/24 09:30:33;;;;;;;29.73;13.05;;;4.80;99.90;;;;;;5073015;28;20021;-69
2023/01/24 09:33:02;;;;;;;26.95;12.02;;;4.80;99.90;;;;;;5073277;28;20030;-69
2023/01/24 09:35:27;;;;;;;27.70;12.63;;;4.80;99.90;;;;;;5072976;28;20051;-69
2023/01/24 09:37:53;;;;;;;28.58;12.77;;;4.90;99.90;;;;;;5072841;28;20033;-69
2023/01/24 09:40:25;;;;;;;29.42;13.48;;;4.90;99.90;;;;;;5072884;28;20021;-69
2023/01/24 09:43:11;;;;;;;29.00;13.38;;;4.90;99.90;;;;;;5072727;28;20077;-70
2023/01/24 09:45:48;;;;;;;27.02;12.40;;;5.00;99.90;;;;;;5067609;28;20017;-69
2023/01/24 09:48:15;;;;;;;29.42;13.70;;;5.00;99.90;;;;;;5055765;28;20021;-70
2023/01/24 09:50:59;;;;;;;25.20;11.48;;;5.10;99.90;;;;;;5072804;28;20055;-69
2023/01/24 09:53:34;;;;;;;21.70;10.55;;;5.10;99.90;;;;;;5072833;28;20017;-69
2023/01/24 09:56:01;;;;;;;25.98;11.18;;;5.00;99.90;;;;;;5072201;28;20029;-69
2023/01/24 09:58:33;;;;;;;23.15;10.48;;;5.00;99.90;;;;;;5072664;28;20029;-69
2023/01/24 10:01:00;;;;;;;24.85;11.77;;;5.00;99.90;;;;;;5069400;28;20082;-70
2023/01/24 10:03:27;;;;;;;23.95;11.45;;;5.00;99.90;;;;;;5072705;28;20020;-69
2023/01/24 10:06:01;;;;;;;23.90;11.32;;;5.00;99.90;;;;;;5072660;28;20028;-69
2023/01/24 10:08:36;;;;;;;24.52;11.00;;;5.00;99.90;;;;;;5074184;28;20110;-69
2023/01/24 10:11:34;;;;;;;24.65;10.10;;;5.00;99.90;;;;;;5092510;28;20036;-69
2023/01/24 10:14:31;;;;;;;24.23;11.57;;;5.00;99.90;;;;;;5092315;28;20077;-69
2023/01/24 10:17:34;;;;;;;26.60;11.95;;;4.90;99.90;;;;;;5071118;28;20542;-69
2023/01/24 10:20:26;;;;;;;24.55;11.52;;;5.00;99.90;;;;;;5053851;28;20508;-69
2023/01/24 10:23:13;;;;;;;25.52;11.65;;;4.90;99.90;;;;;;5052500;28;20064;-69
2023/01/24 10:25:49;;;;;;;26.98;11.73;;;5.00;99.90;;;;;;5052540;28;20044;-68
2023/01/24 10:28:27;;;;;;;27.88;10.77;;;5.00;99.90;;;;;;5052348;28;20502;-69
2023/01/24 10:31:14;;;;;;;23.55;11.40;;;5.00;99.90;;;;;;5061269;28;20110;-69
2023/01/24 10:33:52;;;;;;;23.85;11.13;;;5.00;99.90;;;;;;5076444;28;20495;-69
2023/01/24 10:36:43;;;;;;;25.95;12.70;;;5.10;99.90;;;;;;5076476;28;20032;-69
2023/01/24 10:39:10;;;;;;;24.27;11.52;;;5.10;99.90;;;;;;5076490;28;20028;-69
2023/01/24 10:41:36;;;;;;;24.10;12.15;;;5.10;99.90;;;;;;5075907;28;20017;-69
2023/01/24 10:44:15;;;;;;;26.27;13.00;;;5.10;99.90;;;;;;5076317;28;20511;-69
2023/01/24 10:47:02;;;;;;;26.23;12.43;;;5.10;99.90;;;;;;5076322;28;20037;-69
2023/01/24 10:49:36;;;;;;;24.50;11.10;;;5.10;99.90;;;;;;5076634;28;20393;-69
2023/01/24 10:52:10;;;;;;;24.77;11.38;;;5.10;99.90;;;;;;5075862;28;20048;-69
2023/01/24 10:54:56;;;;;;;26.73;13.45;;;5.10;99.90;;;;;;5076023;28;20032;-69
2023/01/24 10:57:48;;;;;;;24.92;13.27;;;5.10;99.90;;;;;;5075971;28;20031;-69
2023/01/24 11:00:34;;;;;;;24.58;12.07;;;5.00;99.90;;;;;;5075904;28;20094;-68
2023/01/24 11:03:16;;;;;;;25.40;10.82;;;5.10;99.90;;;;;;5074682;28;20044;-69
2023/01/24 11:05:44;;;;;;;;;;;5.00;99.90;;;;;;5056211;28;20083;-69
2023/01/24 11:08:31;;;;;;;25.98;12.80;;;5.10;99.90;;;;;;5057022;28;20003;-69
2023/01/24 11:10:58;;;;;;;24.25;11.27;;;5.10;99.90;;;;;;5073280;28;20499;-69
2023/01/24 11:13:24;;;;;;;24.05;11.10;;;5.20;99.90;;;;;;5075631;28;20411;-69
2023/01/24 11:15:53;;;;;;;25.88;12.95;;;5.20;99.90;;;;;;5076161;28;20472;-70
2023/01/24 11:18:27;;;;;;;24.67;12.20;;;5.20;99.90;;;;;;5075804;28;20041;-70
2023/01/24 11:21:10;;;;;;;26.63;12.90;;;5.20;99.90;;;;;;5054469;28;20465;-69
2023/01/24 11:23:35;;;;;;;26.52;12.82;;;5.30;99.90;;;;;;5055400;28;20079;-70
2023/01/24 11:26:06;;;;;;;24.70;12.18;;;5.30;99.90;;;;;;5060395;28;20040;-73
2023/01/24 11:28:37;;;;;;;25.67;13.93;;;5.30;99.90;;;;;;5055651;28;20078;-69
2023/01/24 11:31:26;;;;;;;24.63;11.93;;;5.20;99.90;;;;;;5036851;28;20029;-70
2023/01/24 11:34:24;;;;;;;25.33;11.77;;;5.30;99.90;;;;;;5055042;28;20167;-69
2023/01/24 11:37:14;;;;;;;26.85;12.82;;;5.30;99.90;;;;;;5034078;28;20063;-69
2023/01/24 11:39:45;;;;;;;25.05;12.07;;;5.20;99.90;;;;;;5065282;28;20071;-69
2023/01/24 11:42:43;;;;;;;27.30;12.47;;;5.20;99.90;;;;;;5074860;28;20105;-69
2023/01/24 11:45:17;;;;;;;24.48;12.10;;;5.20;99.90;;;;;;5031332;28;20420;-69
2023/01/24 11:47:50;;;;;;;25.27;12.68;;;5.20;99.90;;;;;;5037284;28;20498;-69
2023/01/24 11:50:26;;;;;;;26.10;13.20;;;5.20;99.90;;;;;;5037065;28;20029;-69
2023/01/24 11:53:08;;;;;;;24.42;13.00;;;5.20;99.90;;;;;;5055186;28;20033;-69
2023/01/24 11:55:46;;;;;;;24.65;12.50;;;5.20;99.90;;;;;;5062516;28;20385;-69
2023/01/24 11:58:23;;;;;;;25.38;12.38;;;5.30;99.90;;;;;;5074209;28;20032;-69
2023/01/24 12:01:26;;;;;;;29.65;13.68;;;5.30;99.90;;;;;;5074375;28;20593;-69
2023/01/24 12:04:17;;;;;;;25.83;13.07;;;5.20;99.90;;;;;;5075027;28;20025;-69
2023/01/24 12:07:06;;;;;;;25.65;12.90;;;5.30;99.90;;;;;;5075232;28;20357;-69
2023/01/24 12:09:48;;;;;;;26.13;13.20;;;5.30;99.90;;;;;;5075022;28;20039;-69
2023/01/24 12:12:30;;;;;;;26.63;13.13;;;5.40;99.90;;;;;;5074727;28;20033;-69
2023/01/24 12:15:01;;;;;;;28.00;13.20;;;5.40;99.90;;;;;;5074489;28;20035;-69
2023/01/24 12:17:46;;;;;;;28.50;13.02;;;5.40;99.90;;;;;;5073726;28;20049;-69
2023/01/24 12:20:55;;;;;;;27.30;14.15;;;5.40;99.90;;;;;;5074529;28;20025;-69
2023/01/24 12:23:27;;;;;;;27.02;14.25;;;5.50;99.90;;;;;;5045857;28;20036;-69
2023/01/24 12:25:55;;;;;;;;;;;5.40;99.90;;;;;;5071361;28;20025;-69
2023/01/24 12:28:36;;;;;;;26.50;13.30;;;5.50;99.90;;;;;;5067202;28;19912;-69
2023/01/24 12:31:04;;;;;;;25.98;12.98;;;5.50;99.90;;;;;;5072855;28;20131;-68
2023/01/24 12:33:47;;;;;;;26.35;13.45;;;5.50;99.90;;;;;;5073640;28;20025;-69
2023/01/24 12:36:25;;;;;;;24.88;13.00;;;5.50;99.90;;;;;;5067143;28;20123;-69
2023/01/24 12:38:55;;;;;;;26.88;13.43;;;5.50;99.90;;;;;;5068966;28;20075;-68
2023/01/24 12:41:35;;;;;;;25.23;12.13;;;5.50;99.90;;;;;;5058244;28;20104;-69
2023/01/24 12:44:10;;;;;;;26.38;13.57;;;5.60;99.90;;;;;;5074165;28;20165;-69
2023/01/24 12:46:58;;;;;;;28.02;13.55;;;5.60;99.90;;;;;;5071927;28;20651;-69
2023/01/24 12:49:33;;;;;;;27.65;13.57;;;5.70;99.90;;;;;;5064685;28;20017;-68
2023/01/24 12:52:06;;;;;;;26.58;14.27;;;5.70;99.90;;;;;;5054933;28;20041;-69
2023/01/24 12:55:11;;;;;;;29.38;13.85;;;5.70;99.90;;;;;;5055966;28;20040;-70
2023/01/24 12:58:09;;;;;;;28.23;14.65;;;5.70;99.90;;;;;;5064607;28;20029;-70
2023/01/24 13:01:04;;;;;;;25.73;13.75;;;5.70;99.90;;;;;;5065171;28;20119;-70
2023/01/24 13:03:49;;;;;;;27.75;13.68;;;5.70;99.90;;;;;;5021329;28;20037;-70
2023/01/24 13:06:33;;;;;;;29.60;14.57;;;5.70;99.90;;;;;;5063254;28;20028;-67
2023/01/24 13:09:24;;;;;;;27.67;14.82;;;5.70;99.90;;;;;;5072890;28;20025;-68
2023/01/24 13:11:54;;;;;;;27.83;14.65;;;5.60;99.90;;;;;;5072417;28;20078;-67
2023/01/24 13:14:30;;;;;;;29.50;14.38;;;5.60;99.90;;;;;;5073542;28;20369;-70
2023/01/24 13:17:04;;;;;;;29.67;14.98;;;5.60;99.90;;;;;;5072490;28;20435;-68
2023/01/24 13:19:43;;;;;;;26.10;13.68;;;5.60;99.90;;;;;;5072141;28;20090;-68
2023/01/24 13:22:44;;;;;;;27.15;13.95;;;5.60;99.90;;;;;;5072983;28;20036;-68
2023/01/24 13:25:21;;;;;;;27.30;13.48;;;5.70;99.90;;;;;;5071979;28;20033;-68
2023/01/24 13:28:24;;;;;;;29.02;13.60;;;5.80;99.90;;;;;;5071479;28;20074;-68
2023/01/24 13:31:17;;;;;;;26.13;13.38;;;5.80;99.90;;;;;;5069755;28;20037;-68
2023/01/24 13:33:53;;;;;;;28.05;13.77;;;5.80;99.90;;;;;;5072188;28;20032;-69
2023/01/24 13:36:22;;;;;;;25.95;12.50;;;5.80;99.90;;;;;;5073160;28;20472;-68
2023/01/24 13:38:48;;;;;;;26.85;13.90;;;5.80;99.90;;;;;;5052777;28;20048;-68
2023/01/24 13:41:16;;;;;;;27.85;13.77;;;5.80;99.90;;;;;;5052935;28;20027;-68
2023/01/24 13:43:53;;;;;;;27.20;14.27;;;5.80;99.90;;;;;;5072060;28;20028;-68
2023/01/24 13:46:18;;;;;;;27.63;13.95;;;5.70;99.90;;;;;;5065219;28;20028;-69
2023/01/24 13:48:47;;;;;;;28.05;13.88;;;5.80;99.90;;;;;;5072592;28;20087;-68